EGLF

Farnborough Airport

Farnborough, United Kingdom
METAR EGLF 231050Z 03011KT 350V060 9999 FEW029 16/09 Q1023
Observed Flight Rules
May-23 @ 10:50 UTC (27 minutes ago) Visual Flight Rules
Wind Visibility Clouds
30° at 11 knots 10,000+ meters
  • Few at 2,900' AGL
Temperatures Readings
Current 16°C / 61°F
Dewpoint 9°C / 48°F
Humidity 63%
Altimeter 30.21" Hg
Pressure 1023 hPa
Elevation 65
METAR EGLF 231050Z 03011KT 350V060 9999 FEW029 16/09 Q1023
Observed Flight Rules
May-23 @ 10:50 UTC
(27 minutes ago)
VFR
Wind Visibility
30° at 11 knots 10,000+ meters
Clouds
  • Few at 2,900' AGL
Temperature Dewpoint
16°C / 61°F 9°C / 48°F
Humidity Altimeter Pressure
63% 30.21" Hg 1023 hPa